Lietta — V7LV3 — position and weather

sailwx.info

Track history (hours):
 
Tides and Currents Weather Stations Pressure Air Temp Water Temp Dewpoint Dewpoint Depression Visibility Wind Speed Wind Dir Waves Ship Positions

Lietta

Last reported at 2018-Jul-07 20:06 UTC. Time now 2018-Jul-20 16:38 UTC.
Position N 36°02' E 029°34'.
Warning: this ship's position is 12 days out of date.

Length 225 m; draft 1.31 m.

Type: Cargo ship. MMSI: 538002813.

Date/timePositionNaut miles runAvg speedWind from/ knotsBaromVisibWave heightAir tempDewpointWater temp
2018-Jul-07 20:06N 36°02' E 029°34'110.6
2018-Jul-07 20:00N 36°02' E 029°35'1310.3
2018-Jul-07 18:47N 35°54' E 029°48'11 9.9
2018-Jul-07 17:39N 35°47' E 029°59'1 9.8
2018-Jul-07 17:30N 35°46' E 030°00'5 9.9
2018-Jul-07 17:00N 35°44' E 030°05'5 9.9
2018-Jul-07 16:29N 35°41' E 030°10'5 9.5
2018-Jul-07 16:00N 35°38' E 030°15'40 9.5
2018-Jul-07 11:45N 35°12' E 030°53'310.5
2018-Jul-07 11:28N 35°10' E 030°56'510.6
2018-Jul-07 10:57N 35°06' E 031°01'510.6
2018-Jul-07 10:30N 35°03' E 031°05'810.6
2018-Jul-07 09:45N 34°58' E 031°13'310.4
2018-Jul-07 09:26N 34°56' E 031°16'25 9.9
2018-Jul-07 06:55N 34°41' E 031°39'5 9.5
2018-Jul-07 06:25N 34°38' E 031°44'13 9.3
2018-Jul-07 05:04N 34°29' E 031°55'107 8.9
2018-Jul-06 17:05N 33°21' E 033°34'2 9.1
2018-Jul-06 16:52N 33°20' E 033°36'3 9.2
2018-Jul-06 16:30N 33°18' E 033°39'5 9.3
2018-Jul-06 16:00N 33°15' E 033°43'5 9.2
2018-Jul-06 15:30N 33°12' E 033°48'20 8.9
2018-Jul-06 13:14N 33°02' E 034°08'2 9.1
2018-Jul-06 12:58N 33°01' E 034°11'4 9.4
2018-Jul-06 12:30N 33°00' E 034°16'6 9.3
2018-Jul-06 11:51N 32°59' E 034°24'11 9.2
2018-Jul-06 10:36N 32°57' E 034°37'1 9.1
2018-Jul-06 10:28N 32°57' E 034°38'4 8.9
2018-Jul-06 09:59N 32°56' E 034°43'4 8.8
2018-Jul-06 09:29N 32°55' E 034°49'4 8.7
2018-Jul-06 09:00N 32°54' E 034°54'5 8.9
2018-Jul-06 08:27N 32°52' E 034°59'3 0.1
2018-Jul-05 15:27N 32°50' E 035°01'1 0.6
2018-Jul-05 13:04N 32°51' E 034°59'0 0.0
2018-Jul-05 12:40N 32°51' E 034°59'0 0.0
2018-Jul-05 12:28N 32°51' E 034°59'0 0.0
2018-Jul-05 11:17N 32°51' E 034°59'0 0.0
2018-Jul-04 06:10N 32°51' E 034°59'0 0.0
2018-Jul-04 05:52N 32°51' E 034°59'0 0.0
2018-Jul-04 05:22N 32°51' E 034°59'0 0.0
2018-Jul-04 04:52N 32°51' E 034°59'0 0.0
2018-Jul-04 04:16N 32°51' E 034°59'0 0.0
2018-Jul-04 03:10N 32°51' E 034°59'0 0.0
2018-Jul-04 02:52N 32°51' E 034°59'0 0.0
2018-Jul-04 02:16N 32°51' E 034°59'0 0.0
2018-Jul-03 23:28N 32°51' E 034°59'0 0.0
2018-Jul-03 22:58N 32°51' E 034°59'0 0.0
2018-Jul-03 22:29N 32°51' E 034°59'0 0.0
2018-Jul-03 10:10N 32°51' E 034°59'0 0.0
2018-Jul-03 09:46N 32°51' E 034°59'0 0.0
2018-Jul-03 09:16N 32°51' E 034°59'0 0.0
2018-Jul-03 08:58N 32°51' E 034°59'0 0.0
2018-Jul-03 08:22N 32°51' E 034°59'0 0.0
2018-Jul-03 07:58N 32°51' E 034°59'0 0.0
2018-Jul-03 07:28N 32°51' E 034°59'0 0.0
2018-Jul-03 05:10N 32°51' E 034°59'0 0.0
2018-Jul-03 03:34N 32°51' E 034°59'0 0.0
2018-Jul-03 01:52N 32°51' E 034°59'  
2018-Jun-29 21:54N 32°51' E 034°59'0 0.0
2018-Jun-29 18:14N 32°51' E 034°59'0 0.0
2018-Jun-29 11:44N 32°51' E 034°59'0 0.0
2018-Jun-29 11:26N 32°51' E 034°59'0 0.0
2018-Jun-28 00:30N 32°51' E 034°59'0 0.1
2018-Jun-27 23:51N 32°51' E 034°59'0 0.0
2018-Jun-27 23:21N 32°51' E 034°59'0 0.0
2018-Jun-27 23:00N 32°51' E 034°59'0 0.0
2018-Jun-27 22:29N 32°51' E 034°59'0 0.0
2018-Jun-27 21:35N 32°51' E 034°59'0 0.1
2018-Jun-27 21:29N 32°51' E 034°59'  
Track history (hours):
 
Tides and Currents Weather Stations Pressure Air Temp Water Temp Dewpoint Dewpoint Depression Visibility Wind Speed Wind Dir Waves Ship Positions

Lietta

Last reported at 2018-Jul-07 20:06 UTC. Time now 2018-Jul-20 16:38 UTC.
Position N 36°02' E 029°34'.
Warning: this ship's position is 12 days out of date.

Length 225 m; draft 1.31 m.

Type: Cargo ship. MMSI: 538002813.

Date/timePositionNaut miles runAvg speedWind from/ knotsBaromVisibWave heightAir tempDewpointWater temp
2018-Jul-07 20:06N 36°02' E 029°34'110.6
2018-Jul-07 20:00N 36°02' E 029°35'1310.3
2018-Jul-07 18:47N 35°54' E 029°48'11 9.9
2018-Jul-07 17:39N 35°47' E 029°59'1 9.8
2018-Jul-07 17:30N 35°46' E 030°00'5 9.9
2018-Jul-07 17:00N 35°44' E 030°05'5 9.9
2018-Jul-07 16:29N 35°41' E 030°10'5 9.5
2018-Jul-07 16:00N 35°38' E 030°15'40 9.5
2018-Jul-07 11:45N 35°12' E 030°53'310.5
2018-Jul-07 11:28N 35°10' E 030°56'510.6
2018-Jul-07 10:57N 35°06' E 031°01'510.6
2018-Jul-07 10:30N 35°03' E 031°05'810.6
2018-Jul-07 09:45N 34°58' E 031°13'310.4
2018-Jul-07 09:26N 34°56' E 031°16'25 9.9
2018-Jul-07 06:55N 34°41' E 031°39'5 9.5
2018-Jul-07 06:25N 34°38' E 031°44'13 9.3
2018-Jul-07 05:04N 34°29' E 031°55'107 8.9
2018-Jul-06 17:05N 33°21' E 033°34'2 9.1
2018-Jul-06 16:52N 33°20' E 033°36'3 9.2
2018-Jul-06 16:30N 33°18' E 033°39'5 9.3
2018-Jul-06 16:00N 33°15' E 033°43'5 9.2
2018-Jul-06 15:30N 33°12' E 033°48'20 8.9
2018-Jul-06 13:14N 33°02' E 034°08'2 9.1
2018-Jul-06 12:58N 33°01' E 034°11'4 9.4
2018-Jul-06 12:30N 33°00' E 034°16'6 9.3
2018-Jul-06 11:51N 32°59' E 034°24'11 9.2
2018-Jul-06 10:36N 32°57' E 034°37'1 9.1
2018-Jul-06 10:28N 32°57' E 034°38'4 8.9
2018-Jul-06 09:59N 32°56' E 034°43'4 8.8
2018-Jul-06 09:29N 32°55' E 034°49'4 8.7
2018-Jul-06 09:00N 32°54' E 034°54'5 8.9
2018-Jul-06 08:27N 32°52' E 034°59'3 0.1
2018-Jul-05 15:27N 32°50' E 035°01'1 0.6
2018-Jul-05 13:04N 32°51' E 034°59'0 0.0
2018-Jul-05 12:40N 32°51' E 034°59'0 0.0
2018-Jul-05 12:28N 32°51' E 034°59'0 0.0
2018-Jul-05 11:17N 32°51' E 034°59'0 0.0
2018-Jul-04 06:10N 32°51' E 034°59'0 0.0
2018-Jul-04 05:52N 32°51' E 034°59'0 0.0
2018-Jul-04 05:22N 32°51' E 034°59'0 0.0
2018-Jul-04 04:52N 32°51' E 034°59'0 0.0
2018-Jul-04 04:16N 32°51' E 034°59'0 0.0
2018-Jul-04 03:10N 32°51' E 034°59'0 0.0
2018-Jul-04 02:52N 32°51' E 034°59'0 0.0
2018-Jul-04 02:16N 32°51' E 034°59'0 0.0
2018-Jul-03 23:28N 32°51' E 034°59'0 0.0
2018-Jul-03 22:58N 32°51' E 034°59'0 0.0
2018-Jul-03 22:29N 32°51' E 034°59'0 0.0
2018-Jul-03 10:10N 32°51' E 034°59'0 0.0
2018-Jul-03 09:46N 32°51' E 034°59'0 0.0
2018-Jul-03 09:16N 32°51' E 034°59'0 0.0
2018-Jul-03 08:58N 32°51' E 034°59'0 0.0
2018-Jul-03 08:22N 32°51' E 034°59'0 0.0
2018-Jul-03 07:58N 32°51' E 034°59'0 0.0
2018-Jul-03 07:28N 32°51' E 034°59'0 0.0
2018-Jul-03 05:10N 32°51' E 034°59'0 0.0
2018-Jul-03 03:34N 32°51' E 034°59'0 0.0
2018-Jul-03 01:52N 32°51' E 034°59'  
2018-Jun-29 21:54N 32°51' E 034°59'0 0.0
2018-Jun-29 18:14N 32°51' E 034°59'0 0.0
2018-Jun-29 11:44N 32°51' E 034°59'0 0.0
2018-Jun-29 11:26N 32°51' E 034°59'0 0.0
2018-Jun-28 00:30N 32°51' E 034°59'0 0.1
2018-Jun-27 23:51N 32°51' E 034°59'0 0.0
2018-Jun-27 23:21N 32°51' E 034°59'0 0.0
2018-Jun-27 23:00N 32°51' E 034°59'0 0.0
2018-Jun-27 22:29N 32°51' E 034°59'0 0.0
2018-Jun-27 21:35N 32°51' E 034°59'0 0.1
2018-Jun-27 21:29N 32°51' E 034°59'  

Dump ship's entire track history